Time;durP1;ratioP1;P1;durP2;ratioP2;P2;SDS_P1;SDS_P2;PMS_P1;PMS_P2;Temp;Humidity;BMP_temperature;BMP_pressure;BME280_temperature;BME280_humidity;BME280_pressure;Samples;Min_cycle;Max_cycle;Signal;HPM_P1;HPM_P2
2021/12/19 00:02:12;;;;;;;50.80;25.63;;;6.70;99.90;;;;;;5014085;28;20202;-61
2021/12/19 00:04:54;;;;;;;44.83;22.63;;;6.60;99.90;;;;;;5014382;28;20216;-61
2021/12/19 00:10:08;;;;;;;48.80;24.20;;;6.60;99.90;;;;;;5013873;28;20187;-61
2021/12/19 00:12:34;;;;;;;48.10;25.20;;;6.60;99.90;;;;;;5014065;28;20203;-61
2021/12/19 00:15:01;;;;;;;46.03;23.67;;;6.60;99.90;;;;;;5013966;28;20257;-61
2021/12/19 00:17:28;;;;;;;43.87;22.27;;;6.60;99.90;;;;;;5013777;28;20222;-61
2021/12/19 00:19:54;;;;;;;44.20;22.80;;;6.60;99.90;;;;;;5013969;28;20262;-61
2021/12/19 00:22:22;;;;;;;42.23;22.13;;;6.60;99.90;;;;;;5014242;28;20226;-61
2021/12/19 00:24:49;;;;;;;41.93;22.00;;;6.60;99.90;;;;;;5013598;28;20211;-59
2021/12/19 00:27:16;;;;;;;46.77;21.80;;;6.60;99.90;;;;;;5013835;28;20211;-61
2021/12/19 00:29:42;;;;;;;46.87;22.67;;;6.60;99.90;;;;;;5014256;28;20250;-61
2021/12/19 00:32:09;;;;;;;43.20;22.07;;;6.60;99.90;;;;;;5013391;28;20211;-58
2021/12/19 00:34:35;;;;;;;44.80;22.20;;;6.60;99.90;;;;;;5013481;28;20676;-60
2021/12/19 00:37:02;;;;;;;44.30;22.27;;;6.70;99.90;;;;;;5013423;28;20231;-61
2021/12/19 00:39:30;;;;;;;45.77;22.17;;;6.60;99.90;;;;;;5013595;28;20837;-61
2021/12/19 00:41:57;;;;;;;45.60;22.07;;;6.60;99.90;;;;;;5013233;28;20235;-60
2021/12/19 00:44:25;;;;;;;43.03;20.60;;;6.60;99.90;;;;;;5013210;28;20211;-58
2021/12/19 00:47:03;;;;;;;43.10;21.33;;;6.50;99.90;;;;;;5013619;28;20223;-60
2021/12/19 00:49:30;;;;;;;41.97;21.83;;;6.50;99.90;;;;;;5013322;28;20218;-60
2021/12/19 00:51:57;;;;;;;44.40;20.90;;;6.60;1.00;;;;;;5012720;28;20245;-60
2021/12/19 00:54:24;;;;;;;40.77;20.13;;;6.60;1.00;;;;;;5013438;28;20282;-61
2021/12/19 00:56:52;;;;;;;37.97;19.03;;;6.50;99.90;;;;;;5013034;28;20715;-61
2021/12/19 00:59:19;;;;;;;40.13;19.00;;;6.50;1.00;;;;;;5013107;28;20350;-61
2021/12/19 01:01:47;;;;;;;39.23;19.07;;;6.50;1.00;;;;;;5012989;28;20557;-61
2021/12/19 01:04:18;;;;;;;33.30;16.47;;;6.50;1.00;;;;;;5013116;28;20707;-61
2021/12/19 01:06:47;;;;;;;35.60;17.73;;;6.60;1.00;;;;;;5012924;28;20237;-61
2021/12/19 01:09:15;;;;;;;33.30;17.20;;;6.60;1.00;;;;;;5013063;28;20229;-61
2021/12/19 01:11:41;;;;;;;32.53;16.40;;;6.60;1.00;;;;;;5012904;28;20213;-61
2021/12/19 01:14:10;;;;;;;38.00;18.03;;;6.60;1.00;;;;;;5013112;28;20203;-60
2021/12/19 01:16:36;;;;;;;36.47;18.97;;;6.60;1.00;;;;;;5012814;28;20639;-61
2021/12/19 01:19:04;;;;;;;35.37;18.17;;;6.60;1.00;;;;;;5012959;28;20207;-61
2021/12/19 01:21:31;;;;;;;34.40;18.10;;;6.70;1.00;;;;;;5012785;28;20218;-61
2021/12/19 01:23:58;;;;;;;36.20;17.87;;;6.70;1.00;;;;;;5013083;28;20281;-60
2021/12/19 01:26:24;;;;;;;34.57;17.00;;;6.70;1.00;;;;;;5012654;28;20234;-61
2021/12/19 01:28:51;;;;;;;36.30;17.17;;;6.60;99.90;;;;;;5012736;28;20261;-61
2021/12/19 01:31:19;;;;;;;38.80;17.27;;;6.60;99.90;;;;;;5012422;28;20277;-60
2021/12/19 01:33:46;;;;;;;35.17;18.70;;;6.60;99.90;;;;;;5012608;28;20203;-60
2021/12/19 01:36:12;;;;;;;39.83;18.00;;;6.60;99.90;;;;;;5012396;28;20720;-60
2021/12/19 01:38:40;;;;;;;36.83;17.13;;;6.60;99.90;;;;;;5012462;28;20222;-61
2021/12/19 01:41:06;;;;;;;39.30;19.80;;;6.60;99.90;;;;;;5012359;28;20207;-61
2021/12/19 01:43:33;;;;;;;44.33;20.20;;;6.60;99.90;;;;;;5012461;28;20227;-60
2021/12/19 01:46:00;;;;;;;45.13;21.47;;;6.50;99.90;;;;;;5012439;28;20231;-58
2021/12/19 01:48:28;;;;;;;49.80;22.20;;;6.50;99.90;;;;;;5012642;28;20203;-60
2021/12/19 01:50:56;;;;;;;45.00;20.00;;;6.50;99.90;;;;;;5012143;28;20262;-61
2021/12/19 01:53:23;;;;;;;42.77;18.80;;;6.50;99.90;;;;;;5012328;28;20211;-60
2021/12/19 01:55:50;;;;;;;42.03;20.33;;;6.50;1.00;;;;;;5012318;28;20238;-59
2021/12/19 01:58:18;;;;;;;44.17;21.47;;;6.50;1.00;;;;;;5012470;28;20211;-57
2021/12/19 02:00:48;;;;;;;46.10;20.10;;;6.50;99.90;;;;;;5012462;28;20237;-60
2021/12/19 02:03:16;;;;;;;41.47;21.60;;;6.50;99.90;;;;;;5012173;28;20580;-60
2021/12/19 02:05:44;;;;;;;42.80;18.77;;;6.40;1.00;;;;;;5016270;28;20231;-61
2021/12/19 02:08:12;;;;;;;40.83;20.10;;;6.40;1.00;;;;;;5016341;28;20207;-61
2021/12/19 02:10:40;;;;;;;37.37;18.07;;;6.40;1.00;;;;;;5016493;28;20211;-60
2021/12/19 02:13:09;;;;;;;38.60;18.63;;;6.40;1.00;;;;;;5016046;28;20269;-59
2021/12/19 02:15:36;;;;;;;44.43;19.03;;;6.40;1.00;;;;;;5016230;28;20226;-60
2021/12/19 02:18:06;;;;;;;44.80;19.50;;;6.40;1.00;;;;;;5016103;28;20213;-60
2021/12/19 02:20:35;;;;;;;43.80;19.33;;;6.40;1.00;;;;;;5016527;28;20215;-60
2021/12/19 02:23:03;;;;;;;45.17;19.57;;;6.40;1.00;;;;;;5015667;28;20233;-60
2021/12/19 02:25:30;;;;;;;44.03;19.73;;;6.40;1.00;;;;;;5016441;28;20227;-60
2021/12/19 02:27:57;;;;;;;48.30;19.77;;;6.40;1.00;;;;;;5016059;28;20214;-58
2021/12/19 02:30:24;;;;;;;46.60;20.10;;;6.30;1.00;;;;;;5016147;28;20211;-60
2021/12/19 02:32:51;;;;;;;47.43;21.70;;;6.40;1.00;;;;;;5015408;28;20691;-60
2021/12/19 02:35:22;;;;;;;49.87;21.47;;;6.30;1.00;;;;;;5016060;28;20242;-60
2021/12/19 02:48:09;;;;;;;53.33;21.90;;;6.40;1.00;;;;;;4998233;28;20570;-60
2021/12/19 02:49:06;;;;;;;59.13;24.97;;;6.40;1.00;;;;;;5015941;28;20257;-61
2021/12/19 02:51:34;;;;;;;52.17;24.17;;;6.40;1.00;;;;;;5015471;28;20668;-60
2021/12/19 02:54:04;;;;;;;58.47;25.80;;;6.40;1.00;;;;;;5016284;28;20297;-61
2021/12/19 02:56:31;;;;;;;49.40;22.60;;;6.30;1.00;;;;;;5015661;28;20629;-60
2021/12/19 02:58:58;;;;;;;48.67;23.50;;;6.20;1.00;;;;;;5015607;28;20207;-61
2021/12/19 03:01:25;;;;;;;59.63;25.73;;;6.20;1.00;;;;;;5015066;28;20261;-60
2021/12/19 03:03:52;;;;;;;52.07;24.03;;;6.20;1.00;;;;;;5015281;28;20227;-58
2021/12/19 03:06:19;;;;;;;48.23;22.97;;;6.20;1.00;;;;;;5015149;28;20797;-60
2021/12/19 03:08:49;;;;;;;42.77;21.63;;;6.30;1.00;;;;;;5015433;28;20211;-60
2021/12/19 03:11:55;;;;;;;50.20;23.40;;;6.20;1.00;;;;;;5014784;28;20656;-60
2021/12/19 03:20:01;;;;;;;36.10;17.30;;;6.20;1.00;;;;;;4973776;28;20265;-60
2021/12/19 03:22:28;;;;;;;30.63;16.10;;;6.20;1.00;;;;;;4996763;28;20350;-60
2021/12/19 03:24:54;;;;;;;29.70;15.67;;;6.20;1.00;;;;;;5015165;28;20268;-60
2021/12/19 03:27:22;;;;;;;29.10;14.80;;;6.10;1.00;;;;;;5015106;28;20215;-60
2021/12/19 03:29:49;;;;;;;26.23;13.80;;;6.20;1.00;;;;;;5015096;28;20207;-58
2021/12/19 03:32:16;;;;;;;24.20;12.87;;;6.20;1.00;;;;;;5014983;28;20215;-57
2021/12/19 03:34:42;;;;;;;22.30;11.60;;;6.20;1.00;;;;;;5014699;28;20210;-58
2021/12/19 03:37:09;;;;;;;23.80;12.80;;;6.10;1.00;;;;;;5014861;28;20203;-57
2021/12/19 03:39:54;;;;;;;25.23;12.67;;;6.10;1.00;;;;;;5014564;28;20626;-58
2021/12/19 03:42:23;;;;;;;25.20;13.70;;;6.20;1.00;;;;;;5014558;28;20195;-61
2021/12/19 03:44:50;;;;;;;23.37;13.30;;;6.20;1.00;;;;;;5014673;28;20215;-60
2021/12/19 03:47:16;;;;;;;26.13;13.30;;;6.20;1.00;;;;;;5014738;28;20207;-58
2021/12/19 03:49:43;;;;;;;23.40;12.83;;;6.10;1.00;;;;;;5014413;28;20646;-59
2021/12/19 03:52:10;;;;;;;28.77;14.20;;;6.20;1.00;;;;;;5014273;28;20187;-58
2021/12/19 03:54:36;;;;;;;23.37;12.77;;;6.20;1.00;;;;;;5014871;28;20203;-58
2021/12/19 03:57:03;;;;;;;24.97;13.30;;;6.10;1.00;;;;;;5014337;28;20230;-58
2021/12/19 03:59:31;;;;;;;26.10;13.43;;;6.20;1.00;;;;;;5014507;28;20242;-60
2021/12/19 04:01:58;;;;;;;24.77;13.00;;;6.20;1.00;;;;;;5014055;28;20207;-58
2021/12/19 04:04:25;;;;;;;26.07;12.77;;;6.10;1.00;;;;;;5014100;28;20227;-59
2021/12/19 04:06:51;;;;;;;24.50;12.40;;;6.10;1.00;;;;;;5014406;28;20238;-58
2021/12/19 04:09:18;;;;;;;25.77;12.77;;;6.10;1.00;;;;;;5014206;28;20265;-58
2021/12/19 04:11:45;;;;;;;23.57;12.10;;;6.20;1.00;;;;;;5013878;28;20211;-59
2021/12/19 04:14:12;;;;;;;25.20;13.60;;;6.20;1.00;;;;;;5014049;28;20239;-59
2021/12/19 04:16:42;;;;;;;21.67;12.10;;;6.30;1.00;;;;;;5013982;28;20231;-58
2021/12/19 04:19:09;;;;;;;26.33;13.70;;;6.20;1.00;;;;;;5014023;28;20191;-58
2021/12/19 04:21:36;;;;;;;23.73;13.20;;;6.10;1.00;;;;;;5013646;28;20261;-63
2021/12/19 04:24:02;;;;;;;25.27;12.40;;;6.10;1.00;;;;;;5013965;28;20689;-61
2021/12/19 04:26:29;;;;;;;25.00;12.07;;;6.10;1.00;;;;;;5012884;28;20282;-60
2021/12/19 04:28:56;;;;;;;27.47;11.93;;;6.10;1.00;;;;;;5013881;28;20261;-60
2021/12/19 04:31:23;;;;;;;21.50;10.13;;;6.00;1.00;;;;;;5013484;28;20203;-60
2021/12/19 04:33:51;;;;;;;19.27;9.90;;;6.10;1.00;;;;;;5013709;28;20544;-60
2021/12/19 04:36:25;;;;;;;23.23;10.10;;;6.10;1.00;;;;;;5013569;28;20227;-60
2021/12/19 04:39:21;;;;;;;22.63;10.73;;;6.10;1.00;;;;;;5013770;28;20203;-60
2021/12/19 04:50:52;;;;;;;23.27;10.30;;;6.10;1.00;;;;;;4973220;28;20234;-59
2021/12/19 04:53:17;;;;;;;19.53;8.17;;;6.00;1.00;;;;;;5012740;28;20585;-60
2021/12/19 05:01:23;;;;;;;19.00;8.47;;;6.00;1.00;;;;;;5012873;28;20324;-60
2021/12/19 05:04:04;;;;;;;22.00;8.63;;;6.00;99.90;;;;;;5013160;28;20215;-60
2021/12/19 05:06:50;;;;;;;15.03;6.60;;;6.00;99.90;;;;;;5013102;28;20313;-60
2021/12/19 05:14:49;;;;;;;15.13;7.07;;;6.00;99.90;;;;;;5013613;28;20190;-60
2021/12/19 05:17:21;;;;;;;15.97;6.50;;;5.90;99.90;;;;;;5013820;28;20195;-60
2021/12/19 05:20:03;;;;;;;12.70;6.70;;;5.90;99.90;;;;;;5014152;28;20197;-60
2021/12/19 05:22:36;;;;;;;12.70;6.03;;;5.90;99.90;;;;;;5013115;28;20218;-60
2021/12/19 05:25:14;;;;;;;13.57;6.10;;;5.90;99.90;;;;;;5013260;28;20663;-60
2021/12/19 05:27:42;;;;;;;12.47;6.07;;;6.00;99.90;;;;;;5012657;28;20195;-61
2021/12/19 05:30:10;;;;;;;12.33;6.13;;;6.00;99.90;;;;;;5012939;28;20277;-59
2021/12/19 05:32:36;;;;;;;14.10;6.80;;;5.90;99.90;;;;;;5012445;28;20211;-59
2021/12/19 05:35:03;;;;;;;18.37;7.30;;;6.00;99.90;;;;;;5012437;28;20715;-60
2021/12/19 05:45:43;;;;;;;17.37;7.90;;;5.90;99.90;;;;;;5012294;28;20296;-61
2021/12/19 05:48:10;;;;;;;18.50;8.20;;;5.80;99.90;;;;;;5012219;28;20609;-60
2021/12/19 05:50:37;;;;;;;17.40;8.23;;;5.80;99.90;;;;;;5011966;28;20280;-58
2021/12/19 05:53:05;;;;;;;18.73;8.13;;;5.80;99.90;;;;;;5012198;28;20207;-60
2021/12/19 05:55:32;;;;;;;18.17;7.60;;;5.80;99.90;;;;;;5012387;28;20227;-60
2021/12/19 05:57:59;;;;;;;15.87;7.83;;;5.70;99.90;;;;;;5012524;28;20269;-60
2021/12/19 06:00:25;;;;;;;15.77;6.93;;;5.70;99.90;;;;;;5012348;28;20207;-60
2021/12/19 06:02:52;;;;;;;17.23;6.77;;;5.60;99.90;;;;;;5012298;28;20207;-61
2021/12/19 06:05:19;;;;;;;15.77;6.47;;;5.60;99.90;;;;;;5012191;28;20227;-60
2021/12/19 06:07:45;;;;;;;14.07;6.43;;;5.60;99.90;;;;;;5012262;28;20562;-60
2021/12/19 06:10:14;;;;;;;10.83;5.03;;;5.50;99.90;;;;;;5012001;28;20265;-59
2021/12/19 06:12:41;;;;;;;8.47;4.70;;;5.60;99.90;;;;;;5012016;28;20207;-59
2021/12/19 06:15:10;;;;;;;8.23;4.53;;;5.60;99.90;;;;;;5012244;28;20237;-60
2021/12/19 06:17:37;;;;;;;10.07;4.33;;;5.60;99.90;;;;;;5012176;28;20249;-60
2021/12/19 06:20:05;;;;;;;6.83;4.13;;;5.60;99.90;;;;;;5012337;28;20704;-60
2021/12/19 06:22:31;;;;;;;7.53;4.30;;;5.60;99.90;;;;;;5011923;28;20222;-60
2021/12/19 06:24:58;;;;;;;7.43;4.20;;;5.50;99.90;;;;;;5011750;28;20223;-59
2021/12/19 06:27:26;;;;;;;6.83;4.23;;;5.50;94.50;;;;;;5012065;28;20276;-59
2021/12/19 06:29:52;;;;;;;6.80;4.20;;;5.60;89.80;;;;;;5012174;28;20207;-60
2021/12/19 06:32:19;;;;;;;11.30;4.70;;;5.60;80.50;;;;;;5011721;28;20207;-60
2021/12/19 06:34:46;;;;;;;10.57;5.37;;;5.60;58.90;;;;;;5012036;28;20618;-60
2021/12/19 06:37:13;;;;;;;9.80;4.83;;;5.60;37.40;;;;;;5012098;28;20624;-60
2021/12/19 06:39:41;;;;;;;9.80;5.17;;;5.60;31.60;;;;;;5012003;28;20233;-59
2021/12/19 06:42:10;;;;;;;8.80;5.23;;;5.70;47.60;;;;;;5011771;28;20207;-59
2021/12/19 06:44:38;;;;;;;11.10;4.80;;;5.70;29.50;;;;;;5011877;28;20317;-59
2021/12/19 06:47:05;;;;;;;9.90;4.77;;;5.70;21.20;;;;;;5011995;28;20300;-59
2021/12/19 06:49:32;;;;;;;12.40;5.00;;;5.70;13.90;;;;;;5011813;28;20596;-59
2021/12/19 06:51:59;;;;;;;9.70;5.17;;;5.70;18.00;;;;;;5015482;28;20254;-58
2021/12/19 06:54:26;;;;;;;13.33;5.43;;;5.70;29.90;;;;;;5015441;28;20737;-59
2021/12/19 06:56:52;;;;;;;11.50;5.37;;;5.70;38.40;;;;;;5015260;28;20230;-60
2021/12/19 06:59:19;;;;;;;9.70;4.90;;;5.70;29.00;;;;;;5015541;28;20628;-60
2021/12/19 07:01:47;;;;;;;11.33;5.17;;;5.70;33.90;;;;;;5014910;28;20663;-60
2021/12/19 07:04:14;;;;;;;10.37;5.67;;;5.70;42.10;;;;;;5015124;28;20227;-60
2021/12/19 07:06:40;;;;;;;11.30;5.17;;;5.80;42.40;;;;;;5015042;28;20231;-58
2021/12/19 07:09:07;;;;;;;9.73;5.00;;;5.60;30.80;;;;;;5015462;28;20615;-59
2021/12/19 07:11:34;;;;;;;14.60;5.70;;;5.60;56.00;;;;;;5015316;28;20614;-60
2021/12/19 07:14:00;;;;;;;12.37;6.30;;;5.70;84.20;;;;;;5014814;28;20609;-60
2021/12/19 07:16:27;;;;;;;13.23;5.93;;;5.70;99.90;;;;;;5014871;28;20879;-61
2021/12/19 07:18:55;;;;;;;12.90;6.40;;;5.70;99.90;;;;;;5014826;28;20675;-58
2021/12/19 07:21:23;;;;;;;15.57;6.80;;;5.70;99.90;;;;;;5014639;28;20408;-61
2021/12/19 07:23:51;;;;;;;13.77;6.43;;;5.80;99.90;;;;;;5015201;28;20211;-62
2021/12/19 07:26:18;;;;;;;15.03;7.47;;;5.70;99.90;;;;;;5015012;28;20231;-60
2021/12/19 07:28:46;;;;;;;12.80;6.57;;;5.70;99.90;;;;;;5014683;28;20213;-60
2021/12/19 07:31:16;;;;;;;13.17;6.70;;;5.70;99.90;;;;;;5014848;28;20218;-61
2021/12/19 07:33:44;;;;;;;15.17;6.90;;;5.70;99.90;;;;;;5015098;28;20215;-60
2021/12/19 07:36:12;;;;;;;14.43;6.60;;;5.80;99.90;;;;;;5014651;28;20715;-61
2021/12/19 07:38:50;;;;;;;14.40;6.60;;;5.80;99.90;;;;;;5015080;28;20238;-60
2021/12/19 07:41:16;;;;;;;15.23;7.20;;;5.80;99.90;;;;;;5014363;28;20562;-61
2021/12/19 07:43:43;;;;;;;14.90;7.03;;;5.90;99.90;;;;;;5015019;28;20210;-60
2021/12/19 07:46:10;;;;;;;15.63;6.80;;;5.90;99.90;;;;;;5014565;28;20289;-60
2021/12/19 07:48:36;;;;;;;14.10;7.17;;;5.80;99.90;;;;;;5014740;28;20257;-60
2021/12/19 07:51:04;;;;;;;16.17;7.43;;;5.70;99.90;;;;;;5013865;28;20222;-60
2021/12/19 07:53:32;;;;;;;17.13;7.67;;;5.80;99.90;;;;;;5013960;28;20218;-60
2021/12/19 07:55:59;;;;;;;16.60;7.73;;;5.70;99.90;;;;;;5001873;28;20224;-59
2021/12/19 07:58:26;;;;;;;18.63;8.20;;;5.70;99.90;;;;;;4994697;28;20645;-60
2021/12/19 08:00:53;;;;;;;17.27;7.93;;;5.70;99.90;;;;;;4993836;28;20211;-59
2021/12/19 08:03:19;;;;;;;20.67;8.67;;;5.80;99.90;;;;;;4990337;28;20239;-59
2021/12/19 08:05:46;;;;;;;15.60;7.20;;;5.80;99.90;;;;;;4994735;28;20235;-60
2021/12/19 08:08:17;;;;;;;18.27;8.43;;;5.80;99.90;;;;;;4992713;28;20274;-60
2021/12/19 08:13:29;;;;;;;20.33;8.10;;;5.90;99.90;;;;;;4993915;28;20275;-59
2021/12/19 08:15:56;;;;;;;18.77;7.80;;;5.90;99.90;;;;;;4993547;28;20704;-58
2021/12/19 08:18:23;;;;;;;20.47;8.33;;;5.80;99.90;;;;;;4993811;28;20226;-63
2021/12/19 08:20:49;;;;;;;17.47;8.87;;;5.90;99.90;;;;;;4992720;28;20192;-59
2021/12/19 08:23:16;;;;;;;21.60;9.07;;;5.90;99.90;;;;;;4992382;28;20195;-59
2021/12/19 08:25:44;;;;;;;19.00;8.37;;;5.90;99.90;;;;;;4992141;28;20231;-59
2021/12/19 08:28:11;;;;;;;25.47;9.87;;;6.00;99.90;;;;;;4992295;28;20696;-59
2021/12/19 08:30:38;;;;;;;23.30;10.87;;;6.00;99.90;;;;;;4991885;28;20242;-58
2021/12/19 08:33:05;;;;;;;22.20;9.77;;;6.00;99.90;;;;;;4991892;28;20239;-59
2021/12/19 08:35:31;;;;;;;23.17;10.27;;;6.10;99.90;;;;;;4992760;28;20258;-58
2021/12/19 08:37:58;;;;;;;24.10;11.10;;;6.10;99.90;;;;;;4992082;28;20255;-59
2021/12/19 08:40:27;;;;;;;23.13;10.23;;;6.10;99.90;;;;;;4992243;28;20219;-59
2021/12/19 08:42:57;;;;;;;23.37;10.97;;;6.10;99.90;;;;;;4992184;28;20195;-59
2021/12/19 08:45:24;;;;;;;26.83;10.20;;;6.10;99.90;;;;;;4992032;28;20239;-60
2021/12/19 08:47:51;;;;;;;22.03;9.33;;;6.10;99.90;;;;;;4992211;28;20191;-59
2021/12/19 08:50:18;;;;;;;25.67;10.47;;;6.10;99.90;;;;;;4989406;28;20212;-59
2021/12/19 08:52:45;;;;;;;23.90;10.73;;;6.00;99.90;;;;;;4991099;28;20226;-55
2021/12/19 08:55:13;;;;;;;25.30;11.20;;;6.10;99.90;;;;;;4991799;28;20231;-58
2021/12/19 08:57:39;;;;;;;25.70;9.80;;;6.00;99.90;;;;;;4992371;28;20192;-57
2021/12/19 09:00:10;;;;;;;23.53;9.67;;;6.00;99.90;;;;;;4992873;28;20582;-58
2021/12/19 09:02:37;;;;;;;25.30;10.60;;;6.10;99.90;;;;;;4992854;28;20188;-58
2021/12/19 09:05:05;;;;;;;25.23;11.07;;;6.00;99.90;;;;;;4993176;28;20232;-56
2021/12/19 09:07:31;;;;;;;21.53;10.33;;;6.10;99.90;;;;;;4991808;28;20218;-57
2021/12/19 09:09:58;;;;;;;27.53;11.03;;;6.10;99.90;;;;;;4993424;28;20672;-57
2021/12/19 09:12:25;;;;;;;20.07;9.90;;;6.10;99.90;;;;;;4990918;28;20667;-58
2021/12/19 09:14:52;;;;;;;23.63;10.27;;;6.10;99.90;;;;;;4993464;28;20188;-55
2021/12/19 09:17:20;;;;;;;24.87;10.60;;;6.20;99.90;;;;;;4992915;28;20211;-59
2021/12/19 09:19:47;;;;;;;26.57;12.13;;;6.20;99.90;;;;;;4992694;28;20223;-58
2021/12/19 09:22:14;;;;;;;21.97;9.97;;;6.10;99.90;;;;;;4992711;28;20218;-59
2021/12/19 09:24:41;;;;;;;20.17;9.67;;;6.10;99.90;;;;;;4993048;28;20211;-57
2021/12/19 09:27:09;;;;;;;21.70;9.20;;;6.10;99.90;;;;;;4992760;28;20655;-62
2021/12/19 09:29:36;;;;;;;20.73;9.77;;;6.20;99.90;;;;;;4988108;28;20203;-57
2021/12/19 09:32:03;;;;;;;19.80;9.03;;;6.10;99.90;;;;;;4990777;28;20212;-58
2021/12/19 09:34:33;;;;;;;20.10;9.67;;;6.20;99.90;;;;;;4992941;28;20273;-58
2021/12/19 09:37:00;;;;;;;19.13;10.10;;;6.20;99.90;;;;;;4992082;28;20224;-57
2021/12/19 09:39:28;;;;;;;23.27;11.60;;;6.00;99.90;;;;;;4992828;28;20627;-59
2021/12/19 09:41:59;;;;;;;21.00;11.23;;;6.10;99.90;;;;;;4992146;28;20235;-59
2021/12/19 09:44:26;;;;;;;19.70;9.50;;;6.10;99.90;;;;;;4992385;28;20196;-57
2021/12/19 09:46:53;;;;;;;19.80;10.17;;;6.10;99.90;;;;;;4992515;28;20236;-59
2021/12/19 09:49:21;;;;;;;20.80;9.60;;;6.00;99.90;;;;;;4992489;28;20207;-56
2021/12/19 09:51:52;;;;;;;18.83;10.30;;;6.00;99.90;;;;;;4992342;28;20195;-57
2021/12/19 09:54:20;;;;;;;19.40;9.57;;;6.00;99.90;;;;;;4992460;28;20188;-56
2021/12/19 09:56:49;;;;;;;15.73;8.47;;;6.00;99.90;;;;;;4992069;28;20230;-60
2021/12/19 09:59:18;;;;;;;17.83;8.83;;;6.00;99.90;;;;;;4992633;28;20203;-60
2021/12/19 10:01:45;;;;;;;17.77;8.70;;;6.10;99.90;;;;;;4992060;28;20210;-59
2021/12/19 10:04:34;;;;;;;12.17;7.00;;;6.00;99.90;;;;;;4992390;28;20211;-61
2021/12/19 10:07:11;;;;;;;12.03;6.97;;;6.10;99.90;;;;;;4991882;28;20323;-61
2021/12/19 10:09:42;;;;;;;11.83;5.97;;;6.10;99.90;;;;;;4991831;28;20649;-58
2021/12/19 10:15:07;;;;;;;8.70;5.57;;;6.10;99.90;;;;;;4992020;28;20227;-59
2021/12/19 10:17:34;;;;;;;7.43;4.47;;;6.10;99.90;;;;;;4992380;28;20824;-59
2021/12/19 10:20:03;;;;;;;7.93;4.50;;;6.10;99.90;;;;;;4992839;28;20561;-61
2021/12/19 10:22:33;;;;;;;7.87;4.90;;;6.10;99.90;;;;;;4992071;28;20208;-57
2021/12/19 10:25:13;;;;;;;7.93;4.93;;;6.10;99.90;;;;;;4993346;28;20587;-59
2021/12/19 10:27:42;;;;;;;6.73;4.40;;;6.10;99.90;;;;;;4995485;28;20192;-60
2021/12/19 10:30:16;;;;;;;6.60;4.30;;;6.10;99.90;;;;;;4996427;28;20215;-60
2021/12/19 10:32:58;;;;;;;7.73;4.53;;;6.10;99.90;;;;;;4996064;28;20191;-60
2021/12/19 10:35:28;;;;;;;6.80;4.13;;;6.20;99.90;;;;;;4995981;28;20224;-59
2021/12/19 10:37:57;;;;;;;7.17;5.10;;;6.20;99.90;;;;;;4995944;28;20199;-59
2021/12/19 10:40:25;;;;;;;10.53;7.17;;;6.10;99.90;;;;;;4995625;28;20222;-60
2021/12/19 10:42:57;;;;;;;10.43;7.40;;;6.10;99.90;;;;;;4995892;28;20218;-60
2021/12/19 10:45:31;;;;;;;11.00;7.47;;;6.10;99.90;;;;;;4996077;28;20238;-59
2021/12/19 10:48:28;;;;;;;11.83;8.20;;;6.10;99.90;;;;;;4996168;28;20556;-60
2021/12/19 10:50:59;;;;;;;15.47;10.00;;;6.00;99.90;;;;;;4995579;28;20225;-61
2021/12/19 10:53:32;;;;;;;13.63;9.63;;;6.00;99.90;;;;;;4995790;28;20203;-60
2021/12/19 10:55:59;;;;;;;13.57;10.30;;;6.00;99.90;;;;;;4995959;28;20595;-60
2021/12/19 10:58:31;;;;;;;12.43;8.93;;;6.10;99.90;;;;;;4991597;28;20206;-62
2021/12/19 11:01:25;;;;;;;13.57;9.57;;;6.10;99.90;;;;;;5013473;28;20211;-60
2021/12/19 11:03:57;;;;;;;11.57;8.70;;;6.10;99.90;;;;;;5009477;28;20212;-59
2021/12/19 11:06:28;;;;;;;13.80;9.50;;;6.20;99.90;;;;;;4995460;28;20656;-59
2021/12/19 11:08:59;;;;;;;10.60;7.77;;;6.20;99.90;;;;;;4995020;28;20644;-59
2021/12/19 11:11:42;;;;;;;9.27;7.17;;;6.20;99.90;;;;;;4994506;28;20921;-59
2021/12/19 11:14:10;;;;;;;7.17;5.83;;;6.20;99.90;;;;;;4995249;28;20224;-59
2021/12/19 11:16:37;;;;;;;6.73;4.63;;;6.20;99.90;;;;;;4994603;28;20227;-59
2021/12/19 11:19:04;;;;;;;7.63;4.90;;;6.30;99.90;;;;;;4994695;28;20216;-59
2021/12/19 11:21:34;;;;;;;8.30;4.97;;;6.40;99.90;;;;;;4995008;28;20204;-63
2021/12/19 11:24:03;;;;;;;5.63;4.03;;;6.40;99.90;;;;;;4995579;28;20211;-58
2021/12/19 11:26:30;;;;;;;4.97;4.33;;;6.40;1.00;;;;;;4994691;28;20231;-58
2021/12/19 11:28:57;;;;;;;5.37;3.87;;;6.40;1.00;;;;;;4994895;28;20211;-59
2021/12/19 11:31:30;;;;;;;3.50;3.20;;;6.40;1.00;;;;;;4994588;28;20212;-58
2021/12/19 11:34:10;;;;;;;4.27;3.23;;;6.30;1.00;;;;;;4995106;28;20287;-57
2021/12/19 11:36:41;;;;;;;3.77;3.23;;;6.30;1.00;;;;;;4994269;28;20273;-57
2021/12/19 11:39:10;;;;;;;3.70;3.30;;;6.40;1.00;;;;;;4994575;28;20691;-58
2021/12/19 11:41:39;;;;;;;4.70;3.57;;;6.40;1.00;;;;;;4994446;28;20212;-58
2021/12/19 11:44:09;;;;;;;4.40;3.00;;;6.40;1.00;;;;;;4993855;28;20204;-63
2021/12/19 11:46:43;;;;;;;4.13;3.00;;;6.40;1.00;;;;;;4994614;28;20228;-60
2021/12/19 11:49:14;;;;;;;3.83;3.07;;;6.30;1.00;;;;;;4993866;28;20213;-60
2021/12/19 11:51:41;;;;;;;2.57;1.83;;;6.20;1.00;;;;;;4994289;28;20286;-60
2021/12/19 11:54:16;;;;;;;3.40;2.10;;;6.10;1.00;;;;;;4994319;28;20703;-61
2021/12/19 11:57:06;;;;;;;2.43;1.83;;;6.10;1.00;;;;;;4994675;28;20315;-60
2021/12/19 11:59:33;;;;;;;3.83;2.07;;;6.10;1.00;;;;;;4994019;28;20223;-60
2021/12/19 12:02:22;;;;;;;3.07;2.13;;;6.00;1.00;;;;;;4993719;28;20691;-60
2021/12/19 12:05:19;;;;;;;3.23;2.20;;;6.10;1.00;;;;;;4994180;28;20188;-60
2021/12/19 12:08:11;;;;;;;3.37;2.10;;;6.10;1.00;;;;;;4993591;28;20228;-61
2021/12/19 12:11:13;;;;;;;2.53;2.10;;;6.10;1.00;;;;;;4993917;28;20195;-61
2021/12/19 12:13:42;;;;;;;4.37;2.10;;;6.10;1.00;;;;;;4994302;28;20195;-62
2021/12/19 12:16:35;;;;;;;2.93;1.90;;;6.20;1.00;;;;;;4994044;28;20309;-61
2021/12/19 12:19:05;;;;;;;2.60;2.07;;;6.20;1.00;;;;;;4993960;28;20199;-61
2021/12/19 12:21:40;;;;;;;3.07;2.20;;;6.20;1.00;;;;;;4993687;28;20652;-61
2021/12/19 12:24:08;;;;;;;2.20;2.00;;;6.20;1.00;;;;;;4993787;28;20196;-60
2021/12/19 12:26:41;;;;;;;3.73;2.60;;;6.20;1.00;;;;;;4993146;28;20232;-61
2021/12/19 12:29:08;;;;;;;3.37;2.70;;;6.30;1.00;;;;;;4993704;28;20188;-61
2021/12/19 12:31:35;;;;;;;5.90;3.73;;;6.20;1.00;;;;;;4993652;28;20219;-60
2021/12/19 12:34:08;;;;;;;8.23;4.83;;;6.20;1.00;;;;;;4993916;28;20584;-61
2021/12/19 12:36:35;;;;;;;3.73;3.40;;;6.30;1.00;;;;;;4993665;28;20228;-59
2021/12/19 12:39:09;;;;;;;3.87;3.47;;;6.30;1.00;;;;;;4993668;28;20562;-62
2021/12/19 12:41:51;;;;;;;4.10;3.70;;;6.20;1.00;;;;;;4993259;28;20191;-65
2021/12/19 12:44:19;;;;;;;11.20;7.77;;;6.60;90.20;;;;;;4992940;28;20568;-66
2021/12/19 12:46:46;;;;;;;9.47;6.03;;;6.60;99.90;;;;;;4992881;28;20697;-67
2021/12/19 12:49:17;;;;;;;5.20;4.63;;;6.70;99.90;;;;;;4992549;28;20693;-61
2021/12/19 12:51:45;;;;;;;6.77;4.93;;;6.90;99.90;;;;;;4992601;28;20202;-61
2021/12/19 12:54:14;;;;;;;5.83;4.17;;;6.90;1.00;;;;;;4993044;28;20691;-62
2021/12/19 12:56:46;;;;;;;6.90;4.73;;;6.70;99.90;;;;;;4993360;28;20224;-61
2021/12/19 12:59:15;;;;;;;10.63;6.70;;;6.60;99.90;;;;;;4992592;28;20208;-61
2021/12/19 13:01:45;;;;;;;5.37;4.00;;;6.60;99.90;;;;;;4992781;28;20707;-59
2021/12/19 13:04:16;;;;;;;5.60;3.77;;;6.50;99.90;;;;;;4993259;28;20220;-61
2021/12/19 13:06:46;;;;;;;5.77;4.13;;;6.60;99.90;;;;;;4992895;28;20263;-60
2021/12/19 13:09:16;;;;;;;7.63;4.97;;;6.50;99.90;;;;;;4993162;28;20196;-63
2021/12/19 13:11:46;;;;;;;6.37;5.13;;;6.50;99.90;;;;;;4992747;28;20203;-61
2021/12/19 13:14:23;;;;;;;8.23;5.17;;;6.40;1.00;;;;;;4992948;28;20354;-60
2021/12/19 13:16:52;;;;;;;9.40;4.83;;;6.40;1.00;;;;;;4992761;28;20224;-61
2021/12/19 13:19:49;;;;;;;6.37;4.63;;;6.40;1.00;;;;;;4992792;28;20223;-62
2021/12/19 13:22:22;;;;;;;6.63;4.40;;;6.40;1.00;;;;;;4992283;28;20203;-60
2021/12/19 13:24:51;;;;;;;8.60;4.90;;;6.30;1.00;;;;;;4992857;28;20199;-62
2021/12/19 13:27:22;;;;;;;7.50;4.97;;;6.30;1.00;;;;;;4992501;28;20219;-60
2021/12/19 13:30:01;;;;;;;7.50;5.13;;;6.30;1.00;;;;;;4992565;28;20575;-61
2021/12/19 13:32:31;;;;;;;6.83;5.07;;;6.30;1.00;;;;;;4992516;28;20192;-61
2021/12/19 13:34:59;;;;;;;6.33;4.97;;;6.30;1.00;;;;;;5001732;28;20257;-60
2021/12/19 13:37:27;;;;;;;7.10;5.33;;;6.20;1.00;;;;;;5011589;28;20206;-62
2021/12/19 13:40:08;;;;;;;7.20;4.97;;;6.20;1.00;;;;;;5011805;28;20210;-60
2021/12/19 13:42:42;;;;;;;7.63;5.23;;;6.20;1.00;;;;;;5011891;28;20222;-58
2021/12/19 13:45:30;;;;;;;8.33;4.70;;;6.20;1.00;;;;;;5011784;28;21163;-61
2021/12/19 13:47:58;;;;;;;6.50;4.73;;;6.20;1.00;;;;;;5012061;28;20942;-59
2021/12/19 13:50:25;;;;;;;6.27;4.00;;;6.20;1.00;;;;;;5011756;28;20230;-59
2021/12/19 13:52:52;;;;;;;8.17;4.07;;;6.20;1.00;;;;;;5011705;28;20281;-57
2021/12/19 13:55:20;;;;;;;5.40;3.90;;;6.10;1.00;;;;;;5011917;28;20250;-57